메인 페이지
METAR-TAF:

METAR-TAF

공항 :

콜럼버스, 미시시피, 미국

위도: 33-39N, 경도: 088-27W, 고도: 67m

현재 날씨관측

예보는 22분 전, 00:56시(UTC)에 발표되었습니다.
남동6kt
온도 20°C
습도 83%
기압 1012 hPa
시정: 16.1km
고도 3700ft 상공 구름 많음

METAR: KCBM 210056Z AUTO 14006KT 10SM BKN037 20/17 A2989 RMK AO2 SLP124 T01960170

시각: 20:18 (01:18 UTC)

예보

예보는 3 시간 20분 전, 21:58시(UTC)에 발표되었습니다.
예보 대상 시간: 20일 21시부터 21일 21시까지 (UTC)
남남동9kt
시정 10km 이상
고도 5000ft 상공 구름 보통
전환 중
21일 05시부터 21일 06시까지 (UTC)
여러 방향의 바람 6kt
시정 10km 이상
고도 3000ft 상공 구름 많음
전환 중
21일 09시부터 21일 10시까지 (UTC)
여러 방향의 바람 6kt
시정 10km 이상
고도 600ft 상공 구름 많음
고도 2500ft 상공 구름 많음
전환 중
21일 17시부터 21일 18시까지 (UTC)
12kt
시정: 8000m
고도 1500ft 상공 흐림, 적란운.
소나기, 시계 내 뇌우
일시적
21일 18시부터 21일 21시까지 (UTC)
남남서12kt
시정: 2109m
고도 1500ft 상공 흐림, 적란운.
뇌우, 비

TAF: KCBM 202158Z 2021/2121 16009KT 9999 SCT050 QNH2984INS BECMG 2105/2106 VRB06KT 9999 BKN030 QNH2980INS BECMG 2109/2110 VRB06KT 9999 BKN006 BKN025 QNH2982INS BECMG 2117/2118 17012KT 8000 SHRA VCTS OVC015CB QNH2981INS TEMPO 2118/2121 20012KT 6000 TSRA OVC015CB TX25/2021Z TN18/2111Z LAST NO AMDS AFT 2022 NEXT 2109

4,000개 이상의 공항 관측 자료 및 예보 (METAR 및 TAF 보고).

지도상에서 검색 가능한 기상관측소가 노란 점과 빨간 점으로 표시되어 있습니다.

기상관측소 명을 보려면 표시 위로 마우스를 이동하세요.

날씨 관측과 예보를 보려면 클릭하세요.

지도 변경 : 확대하려면 엑스 표시가 있는 녹색 버튼, 축소하려면 빼기 표시가 있는 녹색 버튼, 다음 페이지의 지도를 보려면 녹색 화살표를 클릭하세요.


METAR-TAF: